地図

経路データ

SID SEASON NUMBER BASIN SUBBASIN NAME ISO_TIME NATURE LAT LON WMO_WIND WMO_PRES WMO_AGENCY TRACK_TYPE DIST2LAND LANDFALL IFLAG USA_AGENCY USA_ATCF_ID USA_LAT USA_LON USA_RECORD USA_STATUS USA_WIND USA_PRES USA_SSHS USA_R34_NE USA_R34_SE USA_R34_SW USA_R34_NW USA_R50_NE USA_R50_SE USA_R50_SW USA_R50_NW USA_R64_NE USA_R64_SE USA_R64_SW USA_R64_NW USA_POCI USA_ROCI USA_RMW USA_EYE TOKYO_LAT TOKYO_LON TOKYO_GRADE TOKYO_WIND TOKYO_PRES TOKYO_R50_DIR TOKYO_R50_LONG TOKYO_R50_SHORT TOKYO_R30_DIR TOKYO_R30_LONG TOKYO_R30_SHORT TOKYO_LAND CMA_LAT CMA_LON CMA_CAT CMA_WIND CMA_PRES HKO_LAT HKO_LON HKO_CAT HKO_WIND HKO_PRES NEWDELHI_LAT NEWDELHI_LON NEWDELHI_GRADE NEWDELHI_WIND NEWDELHI_PRES NEWDELHI_CI NEWDELHI_DP NEWDELHI_POCI REUNION_LAT REUNION_LON REUNION_TYPE REUNION_WIND REUNION_PRES REUNION_TNUM REUNION_CI REUNION_RMW REUNION_R34_NE REUNION_R34_SE REUNION_R34_SW REUNION_R34_NW REUNION_R50_NE REUNION_R50_SE REUNION_R50_SW REUNION_R50_NW REUNION_R64_NE REUNION_R64_SE REUNION_R64_SW REUNION_R64_NW BOM_LAT BOM_LON BOM_TYPE BOM_WIND BOM_PRES BOM_TNUM BOM_CI BOM_RMW BOM_R34_NE BOM_R34_SE BOM_R34_SW BOM_R34_NW BOM_R50_NE BOM_R50_SE BOM_R50_SW BOM_R50_NW BOM_R64_NE BOM_R64_SE BOM_R64_SW BOM_R64_NW BOM_ROCI BOM_POCI BOM_EYE BOM_POS_METHOD BOM_PRES_METHOD NADI_LAT NADI_LON NADI_CAT NADI_WIND NADI_PRES WELLINGTON_LAT WELLINGTON_LON WELLINGTON_WIND WELLINGTON_PRES DS824_LAT DS824_LON DS824_STAGE DS824_WIND DS824_PRES TD9636_LAT TD9636_LON TD9636_STAGE TD9636_WIND TD9636_PRES TD9635_LAT TD9635_LON TD9635_WIND TD9635_PRES TD9635_ROCI NEUMANN_LAT NEUMANN_LON NEUMANN_CLASS NEUMANN_WIND NEUMANN_PRES MLC_LAT MLC_LON MLC_CLASS MLC_WIND MLC_PRES USA_GUST BOM_GUST BOM_GUST_PER REUNION_GUST REUNION_GUST_PER USA_SEAHGT USA_SEARAD_NE USA_SEARAD_SE USA_SEARAD_SW USA_SEARAD_NW STORM_SPEED STORM_DIR
1945200N26270 1945 35 NA GM NOT_NAMED 1945-07-19 06:00:00 TS 25.7000 -90.0000 30 hurdat_atl main 379 368 O_____________ hurdat_atl AL021945 25.7000 -90.0000 TD 30 -1 8 292
1945200N26270 1945 35 NA GM NOT_NAMED 1945-07-19 09:00:00 TS 25.8503 -90.4098 main 357 346 P_____________ AL021945 25.8503 -90.4098 TD 30 -1 8 293
1945200N26270 1945 35 NA GM NOT_NAMED 1945-07-19 12:00:00 TS 26.0000 -90.8000 30 hurdat_atl main 346 334 O_____________ hurdat_atl AL021945 26.0000 -90.8000 TD 30 -1 7 294
1945200N26270 1945 35 NA GM NOT_NAMED 1945-07-19 15:00:00 TS 26.1499 -91.1576 main 336 316 P_____________ AL021945 26.1499 -91.1576 TD 30 -1 7 296
1945200N26270 1945 35 NA GM NOT_NAMED 1945-07-19 18:00:00 TS 26.3000 -91.5000 30 hurdat_atl main 318 309 O_____________ hurdat_atl AL021945 26.3000 -91.5000 TD 30 -1 7 296
1945200N26270 1945 35 NA GM NOT_NAMED 1945-07-19 21:00:00 TS 26.4575 -91.8575 main 306 302 P_____________ AL021945 26.4575 -91.8575 TD 32 -1 7 296
1945200N26270 1945 35 NA GM NOT_NAMED 1945-07-20 00:00:00 TS 26.6000 -92.2000 35 hurdat_atl main 306 301 O_____________ hurdat_atl AL021945 26.6000 -92.2000 TS 35 0 6 293
1945200N26270 1945 35 NA GM NOT_NAMED 1945-07-20 03:00:00 TS 26.7074 -92.5076 main 310 303 P_____________ AL021945 26.7074 -92.5076 TS 35 0 6 290
1945200N26270 1945 35 NA GM NOT_NAMED 1945-07-20 06:00:00 TS 26.8000 -92.8000 35 hurdat_atl main 305 298 O_____________ hurdat_atl AL021945 26.8000 -92.8000 TS 35 0 6 289
1945200N26270 1945 35 NA GM NOT_NAMED 1945-07-20 09:00:00 TS 26.8925 -93.1076 main 300 284 P_____________ AL021945 26.8925 -93.1076 TS 35 0 6 290
1945200N26270 1945 35 NA GM NOT_NAMED 1945-07-20 12:00:00 TS 27.0000 -93.4000 35 hurdat_atl main 284 263 O_____________ hurdat_atl AL021945 27.0000 -93.4000 TS 35 0 6 297
1945200N26270 1945 35 NA GM NOT_NAMED 1945-07-20 15:00:00 TS 27.1424 -93.6575 main 258 228 P_____________ AL021945 27.1424 -93.6575 TS 35 0 5 304
1945200N26270 1945 35 NA GM NOT_NAMED 1945-07-20 18:00:00 TS 27.3000 -93.9000 35 hurdat_atl main 228 208 O_____________ hurdat_atl AL021945 27.3000 -93.9000 TS 35 0 5 306
1945200N26270 1945 35 NA GM NOT_NAMED 1945-07-20 21:00:00 TS 27.4575 -94.1500 main 193 174 P_____________ AL021945 27.4575 -94.1500 TS 35 0 5 304
1945200N26270 1945 35 NA GM NOT_NAMED 1945-07-21 00:00:00 TS 27.6000 -94.4000 35 hurdat_atl main 174 155 O_____________ hurdat_atl AL021945 27.6000 -94.4000 TS 35 0 5 301
1945200N26270 1945 35 NA GM NOT_NAMED 1945-07-21 03:00:00 TS 27.7225 -94.6500 main 155 132 P_____________ AL021945 27.7225 -94.6500 TS 35 0 5 294
1945200N26270 1945 35 NA GM NOT_NAMED 1945-07-21 06:00:00 TS 27.8000 -94.9000 35 hurdat_atl main 132 125 O_____________ hurdat_atl AL021945 27.8000 -94.9000 TS 35 0 5 283
1945200N26270 1945 35 NA GM NOT_NAMED 1945-07-21 09:00:00 TS 27.8300 -95.1575 main 118 106 P_____________ AL021945 27.8300 -95.1575 TS 35 0 4 270
1945200N26270 1945 35 NA GM NOT_NAMED 1945-07-21 12:00:00 TS 27.8000 -95.4000 35 hurdat_atl main 106 97 O_____________ hurdat_atl AL021945 27.8000 -95.4000 TS 35 0 4 256
1945200N26270 1945 35 NA GM NOT_NAMED 1945-07-21 15:00:00 TS 27.7299 -95.6075 main 106 101 P_____________ AL021945 27.7299 -95.6075 TS 35 0 4 241
1945200N26270 1945 35 NA GM NOT_NAMED 1945-07-21 18:00:00 TS 27.6000 -95.8000 35 hurdat_atl main 106 106 O_____________ hurdat_atl AL021945 27.6000 -95.8000 TS 35 0 5 225
1945200N26270 1945 35 NA GM NOT_NAMED 1945-07-21 21:00:00 TS 27.4074 -95.9775 main 118 113 P_____________ AL021945 27.4073 -95.9775 TS 32 -1 5 222
1945200N26270 1945 35 NA GM NOT_NAMED 1945-07-22 00:00:00 TS 27.2000 -96.2000 30 hurdat_atl main 113 90 O_____________ hurdat_atl AL021945 27.2000 -96.2000 TD 30 -1 6 232
1945200N26270 1945 35 NA GM NOT_NAMED 1945-07-22 03:00:00 TS 27.0353 -96.5202 main 95 59 P_____________ AL021945 27.0353 -96.5202 TD 27 -1 7 244
1945200N26270 1945 35 NA GM NOT_NAMED 1945-07-22 06:00:00 TS 26.9000 -96.9000 25 hurdat_atl main 59 O_____________ hurdat_atl AL021945 26.9000 -96.9000 TD 25 -1 7 248

IBTrACS Databaseについて

本データベースは、米国NOAAが公開する1842年以降の世界の熱帯低気圧のベストトラックデータアーカイブInternational Best Track Archive for Climate Stewardship (IBTrACS)を、ウェブで閲覧しやすい形式に変換したものです。

最終更新日:2021-10-27